Time;durP1;ratioP1;P1;durP2;ratioP2;P2;SDS_P1;SDS_P2;PMS_P1;PMS_P2;Temp;Humidity;BMP_temperature;BMP_pressure;BME280_temperature;BME280_humidity;BME280_pressure;Samples;Min_cycle;Max_cycle;Signal;HPM_P1;HPM_P2
2023/01/05 00:00:04;;;;;;;46.92;35.05;;;11.50;91.60;;;;;;5052288;28;20032;-73
2023/01/05 00:02:30;;;;;;;43.47;33.30;;;11.50;91.60;;;;;;5052971;28;20025;-74
2023/01/05 00:04:55;;;;;;;37.67;31.27;;;11.50;91.80;;;;;;5038145;28;20469;-73
2023/01/05 00:07:21;;;;;;;41.08;32.13;;;11.40;91.70;;;;;;5056013;28;20484;-73
2023/01/05 00:09:47;;;;;;;39.53;30.35;;;11.50;91.70;;;;;;5038277;28;20029;-73
2023/01/05 00:23:09;;;;;;;;;;;11.10;91.50;;;;;;5056436;28;20385;-72
2023/01/05 00:25:39;;;;;;;32.30;24.50;;;11.00;91.80;;;;;;5037801;28;19905;-74
2023/01/05 00:28:05;;;;;;;33.22;25.33;;;10.90;91.90;;;;;;5037753;28;20036;-74
2023/01/05 00:30:36;;;;;;;31.45;24.58;;;10.90;91.80;;;;;;5055556;28;20078;-74
2023/01/05 00:33:02;;;;;;;32.80;24.85;;;10.90;91.90;;;;;;5055735;28;20048;-74
2023/01/05 00:35:28;;;;;;;31.30;25.60;;;10.80;91.80;;;;;;5055579;28;20025;-75
2023/01/05 00:37:54;;;;;;;28.92;23.00;;;10.80;91.70;;;;;;5037883;28;20071;-73
2023/01/05 00:40:21;;;;;;;32.67;24.42;;;10.80;91.80;;;;;;5063976;28;20495;-75
2023/01/05 00:42:47;;;;;;;29.30;24.35;;;10.70;91.60;;;;;;5057550;28;20052;-74
2023/01/05 00:45:14;;;;;;;31.50;24.23;;;10.70;91.90;;;;;;5075219;28;20381;-73
2023/01/05 00:47:40;;;;;;;29.05;23.70;;;10.70;91.90;;;;;;5057119;28;20024;-73
2023/01/05 00:50:08;;;;;;;31.83;23.75;;;10.60;91.70;;;;;;5057602;28;20381;-73
2023/01/05 00:52:34;;;;;;;28.98;23.67;;;10.60;91.70;;;;;;5075298;28;20029;-74
2023/01/05 00:55:00;;;;;;;31.00;22.20;;;10.50;91.70;;;;;;5057484;28;20144;-75
2023/01/05 00:57:26;;;;;;;30.60;24.00;;;10.40;91.80;;;;;;5057232;28;20446;-74
2023/01/05 00:59:51;;;;;;;28.23;22.80;;;10.40;91.90;;;;;;5057158;28;20063;-74
2023/01/05 01:02:17;;;;;;;29.77;23.17;;;10.40;91.80;;;;;;5075638;28;20067;-74
2023/01/05 01:04:43;;;;;;;26.70;21.90;;;10.30;91.80;;;;;;5075097;28;20445;-74
2023/01/05 01:07:08;;;;;;;27.92;21.33;;;10.40;92.00;;;;;;5055742;28;20376;-74
2023/01/05 01:09:34;;;;;;;27.15;20.88;;;10.40;91.90;;;;;;5056927;28;20068;-73
2023/01/05 01:12:00;;;;;;;25.23;20.77;;;10.30;91.60;;;;;;5056304;28;20056;-73
2023/01/05 01:14:26;;;;;;;24.33;20.35;;;10.30;91.90;;;;;;5073183;28;20064;-74
2023/01/05 01:16:52;;;;;;;23.15;20.08;;;10.20;91.80;;;;;;5074879;28;20519;-74
2023/01/05 01:19:20;;;;;;;25.88;19.50;;;10.10;91.90;;;;;;5075197;28;20479;-73
2023/01/05 01:21:46;;;;;;;23.17;19.33;;;10.10;92.00;;;;;;5056844;28;20040;-73
2023/01/05 01:24:24;;;;;;;24.85;19.90;;;10.00;91.90;;;;;;5057033;28;20029;-74
2023/01/05 01:26:51;;;;;;;24.90;19.08;;;9.90;91.90;;;;;;5056980;28;20388;-73
2023/01/05 01:29:16;;;;;;;25.27;19.10;;;9.90;92.50;;;;;;5056911;28;20108;-73
2023/01/05 01:31:44;;;;;;;24.27;20.17;;;9.90;92.40;;;;;;5074653;28;20089;-73
2023/01/05 01:34:09;;;;;;;22.25;18.67;;;9.90;92.50;;;;;;5056685;28;20067;-73
2023/01/05 01:36:35;;;;;;;25.23;19.38;;;9.90;92.40;;;;;;5056223;28;20476;-73
2023/01/05 01:39:01;;;;;;;23.55;19.58;;;9.90;92.30;;;;;;5056697;28;20512;-72
2023/01/05 01:41:28;;;;;;;23.65;18.70;;;9.90;92.50;;;;;;5056586;28;20028;-73
2023/01/05 01:43:55;;;;;;;24.73;19.50;;;9.80;92.30;;;;;;5056224;28;20075;-74
2023/01/05 01:46:23;;;;;;;20.85;18.48;;;9.80;92.50;;;;;;5056589;28;20434;-74
2023/01/05 01:48:59;;;;;;;24.42;18.50;;;9.80;92.60;;;;;;5056520;28;20083;-73
2023/01/05 01:51:33;;;;;;;21.98;17.92;;;9.80;92.00;;;;;;5055941;28;20064;-73
2023/01/05 01:54:01;;;;;;;23.10;18.33;;;9.80;91.90;;;;;;5074156;28;20086;-74
2023/01/05 01:56:35;;;;;;;24.50;18.48;;;9.80;92.60;;;;;;5074197;28;20037;-73
2023/01/05 01:59:01;;;;;;;21.83;17.90;;;9.80;92.70;;;;;;5074057;28;20500;-73
2023/01/05 02:01:27;;;;;;;22.80;17.58;;;9.80;92.50;;;;;;5073756;28;20024;-74
2023/01/05 02:03:54;;;;;;;22.45;18.00;;;9.90;92.60;;;;;;5056222;28;20403;-74
2023/01/05 02:06:19;;;;;;;24.20;18.83;;;9.90;92.60;;;;;;5074064;28;20025;-74
2023/01/05 02:08:46;;;;;;;22.50;17.63;;;9.90;92.50;;;;;;5055998;28;20036;-70
2023/01/05 02:11:34;;;;;;;23.00;17.80;;;9.90;92.60;;;;;;5073590;28;20085;-72
2023/01/05 02:14:09;;;;;;;22.60;16.92;;;9.90;92.10;;;;;;5055705;28;20159;-75
2023/01/05 02:16:53;;;;;;;21.70;18.10;;;10.00;91.40;;;;;;5055841;28;20048;-74
